sensor_id;sensor_type;location;lat;lon;timestamp;pressure;altitude;pressure_sealevel;temperature;humidity
75972;BME280;64651;47.540;19.088;2023-04-24T00:03:25;99676.72;;;12.29;62.09
75972;BME280;64651;47.540;19.088;2023-04-24T00:08:28;99659.66;;;12.27;62.05
75972;BME280;64651;47.540;19.088;2023-04-24T00:13:30;99665.47;;;12.39;62.72
75972;BME280;64651;47.540;19.088;2023-04-24T00:18:32;99660.44;;;12.55;62.99
75972;BME280;64651;47.540;19.088;2023-04-24T00:23:34;99650.66;;;12.71;62.14
75972;BME280;64651;47.540;19.088;2023-04-24T00:28:36;99672.97;;;12.97;62.20
75972;BME280;64651;47.540;19.088;2023-04-24T00:33:39;99679.88;;;13.08;61.55
75972;BME280;64651;47.540;19.088;2023-04-24T00:38:41;99677.53;;;13.15;60.36
75972;BME280;64651;47.540;19.088;2023-04-24T00:43:44;99660.66;;;13.17;59.74
75972;BME280;64651;47.540;19.088;2023-04-24T00:48:46;99659.78;;;13.38;58.57
75972;BME280;64651;47.540;19.088;2023-04-24T00:53:48;99658.28;;;13.32;59.92
75972;BME280;64651;47.540;19.088;2023-04-24T00:58:51;99668.28;;;13.20;61.83
75972;BME280;64651;47.540;19.088;2023-04-24T01:03:54;99646.00;;;13.16;59.52
75972;BME280;64651;47.540;19.088;2023-04-24T01:08:58;99649.66;;;13.12;59.05
75972;BME280;64651;47.540;19.088;2023-04-24T01:14:01;99651.56;;;13.02;59.26
75972;BME280;64651;47.540;19.088;2023-04-24T01:19:05;99640.69;;;13.06;59.65
75972;BME280;64651;47.540;19.088;2023-04-24T01:24:08;99658.69;;;13.48;55.25
75972;BME280;64651;47.540;19.088;2023-04-24T01:29:10;99660.91;;;13.60;54.19
75972;BME280;64651;47.540;19.088;2023-04-24T01:34:13;99646.97;;;13.73;53.14
75972;BME280;64651;47.540;19.088;2023-04-24T01:39:15;99643.72;;;13.80;52.81
75972;BME280;64651;47.540;19.088;2023-04-24T01:44:18;99643.22;;;13.69;53.29
75972;BME280;64651;47.540;19.088;2023-04-24T01:49:20;99636.72;;;13.74;52.83
75972;BME280;64651;47.540;19.088;2023-04-24T01:54:23;99628.41;;;13.74;52.51
75972;BME280;64651;47.540;19.088;2023-04-24T01:59:26;99615.81;;;13.90;52.34
75972;BME280;64651;47.540;19.088;2023-04-24T02:04:29;99606.06;;;13.53;63.04
75972;BME280;64651;47.540;19.088;2023-04-24T02:09:32;99579.22;;;12.92;67.67
75972;BME280;64651;47.540;19.088;2023-04-24T02:14:34;99568.00;;;12.44;73.10
75972;BME280;64651;47.540;19.088;2023-04-24T02:19:36;99583.78;;;12.16;72.97
75972;BME280;64651;47.540;19.088;2023-04-24T02:24:38;99579.41;;;12.15;73.71
75972;BME280;64651;47.540;19.088;2023-04-24T02:29:40;99575.88;;;12.01;76.53
75972;BME280;64651;47.540;19.088;2023-04-24T02:34:43;99569.84;;;11.99;78.62
75972;BME280;64651;47.540;19.088;2023-04-24T02:39:45;99568.09;;;12.03;79.28
75972;BME280;64651;47.540;19.088;2023-04-24T02:44:47;99571.88;;;12.07;80.54
75972;BME280;64651;47.540;19.088;2023-04-24T02:49:49;99561.34;;;12.09;80.46
75972;BME280;64651;47.540;19.088;2023-04-24T02:54:51;99548.78;;;12.03;79.38
75972;BME280;64651;47.540;19.088;2023-04-24T02:59:55;99565.00;;;12.18;78.31
75972;BME280;64651;47.540;19.088;2023-04-24T03:04:57;99555.81;;;12.09;75.77
75972;BME280;64651;47.540;19.088;2023-04-24T03:09:59;99562.66;;;12.25;76.87
75972;BME280;64651;47.540;19.088;2023-04-24T03:15:02;99540.06;;;12.23;71.75
75972;BME280;64651;47.540;19.088;2023-04-24T03:20:04;99559.13;;;12.33;75.44
75972;BME280;64651;47.540;19.088;2023-04-24T03:25:08;99552.06;;;12.41;74.47
75972;BME280;64651;47.540;19.088;2023-04-24T03:30:11;99524.91;;;12.34;76.01
75972;BME280;64651;47.540;19.088;2023-04-24T03:35:13;99553.19;;;12.40;77.38
75972;BME280;64651;47.540;19.088;2023-04-24T03:40:15;99542.69;;;12.28;77.96
75972;BME280;64651;47.540;19.088;2023-04-24T03:45:18;99552.31;;;12.31;77.31
75972;BME280;64651;47.540;19.088;2023-04-24T03:50:20;99540.31;;;12.13;78.22
75972;BME280;64651;47.540;19.088;2023-04-24T03:55:23;99553.97;;;12.18;78.80
75972;BME280;64651;47.540;19.088;2023-04-24T04:00:25;99528.87;;;12.06;78.23
75972;BME280;64651;47.540;19.088;2023-04-24T04:05:28;99552.75;;;12.10;77.87
75972;BME280;64651;47.540;19.088;2023-04-24T04:10:30;99543.16;;;12.08;74.03
75972;BME280;64651;47.540;19.088;2023-04-24T04:15:32;99550.94;;;12.06;76.51
75972;BME280;64651;47.540;19.088;2023-04-24T04:20:35;99535.66;;;12.00;76.87
75972;BME280;64651;47.540;19.088;2023-04-24T04:25:37;99540.56;;;12.25;77.06
75972;BME280;64651;47.540;19.088;2023-04-24T04:30:39;99549.56;;;12.53;75.91
75972;BME280;64651;47.540;19.088;2023-04-24T04:35:42;99537.81;;;12.70;75.17
75972;BME280;64651;47.540;19.088;2023-04-24T04:40:45;99559.75;;;12.97;74.81
75972;BME280;64651;47.540;19.088;2023-04-24T04:45:47;99541.94;;;13.03;73.56
75972;BME280;64651;47.540;19.088;2023-04-24T04:50:50;99550.31;;;13.20;72.78
75972;BME280;64651;47.540;19.088;2023-04-24T04:55:53;99537.84;;;13.23;73.79
75972;BME280;64651;47.540;19.088;2023-04-24T05:00:55;99547.78;;;13.32;73.84
75972;BME280;64651;47.540;19.088;2023-04-24T05:05:59;99515.06;;;13.17;73.22
75972;BME280;64651;47.540;19.088;2023-04-24T05:11:02;99516.22;;;13.25;73.39
75972;BME280;64651;47.540;19.088;2023-04-24T05:16:04;99532.06;;;13.42;72.71
75972;BME280;64651;47.540;19.088;2023-04-24T05:21:06;99534.88;;;13.67;72.43
75972;BME280;64651;47.540;19.088;2023-04-24T05:26:14;99521.25;;;13.79;71.17
75972;BME280;64651;47.540;19.088;2023-04-24T05:31:20;99523.28;;;14.13;70.28
75972;BME280;64651;47.540;19.088;2023-04-24T05:36:22;99519.22;;;14.54;68.39
75972;BME280;64651;47.540;19.088;2023-04-24T05:41:24;99528.44;;;14.92;66.24
75972;BME280;64651;47.540;19.088;2023-04-24T05:46:26;99518.50;;;14.83;66.66
75972;BME280;64651;47.540;19.088;2023-04-24T05:51:29;99545.75;;;14.46;65.31
75972;BME280;64651;47.540;19.088;2023-04-24T05:56:31;99541.69;;;14.44;65.17
75972;BME280;64651;47.540;19.088;2023-04-24T06:01:33;99537.59;;;14.58;64.30
75972;BME280;64651;47.540;19.088;2023-04-24T06:06:36;99525.88;;;14.70;63.39
75972;BME280;64651;47.540;19.088;2023-04-24T06:11:38;99538.38;;;14.93;62.97
75972;BME280;64651;47.540;19.088;2023-04-24T06:16:42;99541.44;;;15.00;61.42
75972;BME280;64651;47.540;19.088;2023-04-24T06:21:44;99533.06;;;15.26;60.87
75972;BME280;64651;47.540;19.088;2023-04-24T06:26:46;99545.88;;;15.39;60.64
75972;BME280;64651;47.540;19.088;2023-04-24T06:31:49;99553.19;;;15.44;60.31
75972;BME280;64651;47.540;19.088;2023-04-24T06:36:51;99546.69;;;15.40;60.95
75972;BME280;64651;47.540;19.088;2023-04-24T06:41:53;99547.47;;;15.02;62.61
75972;BME280;64651;47.540;19.088;2023-04-24T06:46:55;99548.84;;;14.79;66.73
75972;BME280;64651;47.540;19.088;2023-04-24T06:51:58;99546.88;;;14.80;67.86
75972;BME280;64651;47.540;19.088;2023-04-24T06:57:00;99531.22;;;14.92;66.32
75972;BME280;64651;47.540;19.088;2023-04-24T07:02:02;99538.88;;;15.42;65.52
75972;BME280;64651;47.540;19.088;2023-04-24T07:07:05;99537.69;;;15.43;64.00
75972;BME280;64651;47.540;19.088;2023-04-24T07:12:08;99533.47;;;15.46;63.91
75972;BME280;64651;47.540;19.088;2023-04-24T07:17:12;99521.50;;;15.62;63.39
75972;BME280;64651;47.540;19.088;2023-04-24T07:22:15;99543.63;;;15.79;62.43
75972;BME280;64651;47.540;19.088;2023-04-24T07:27:18;99536.72;;;15.86;62.20
75972;BME280;64651;47.540;19.088;2023-04-24T07:32:21;99533.38;;;16.21;61.47
75972;BME280;64651;47.540;19.088;2023-04-24T07:37:23;99539.75;;;16.22;60.40
75972;BME280;64651;47.540;19.088;2023-04-24T07:42:26;99540.44;;;15.60;61.37
75972;BME280;64651;47.540;19.088;2023-04-24T07:47:28;99527.91;;;16.87;58.54
75972;BME280;64651;47.540;19.088;2023-04-24T07:52:30;99525.66;;;16.69;59.58
75972;BME280;64651;47.540;19.088;2023-04-24T07:57:32;99532.34;;;16.47;59.68
75972;BME280;64651;47.540;19.088;2023-04-24T08:02:34;99527.47;;;16.97;58.93
75972;BME280;64651;47.540;19.088;2023-04-24T08:07:37;99539.25;;;17.39;58.50
75972;BME280;64651;47.540;19.088;2023-04-24T08:12:40;99524.66;;;18.55;55.34
75972;BME280;64651;47.540;19.088;2023-04-24T08:17:43;99538.59;;;17.79;56.16
75972;BME280;64651;47.540;19.088;2023-04-24T08:22:45;99519.19;;;18.87;54.23
75972;BME280;64651;47.540;19.088;2023-04-24T08:27:50;99516.62;;;19.88;51.67
75972;BME280;64651;47.540;19.088;2023-04-24T08:32:52;99515.47;;;20.24;49.70
75972;BME280;64651;47.540;19.088;2023-04-24T08:37:54;99528.28;;;18.44;54.38
75972;BME280;64651;47.540;19.088;2023-04-24T08:42:57;99531.53;;;17.00;58.62
75972;BME280;64651;47.540;19.088;2023-04-24T08:48:00;99544.28;;;17.01;58.70
75972;BME280;64651;47.540;19.088;2023-04-24T08:53:04;99518.75;;;17.44;56.49
75972;BME280;64651;47.540;19.088;2023-04-24T08:58:08;99525.94;;;18.46;53.41
75972;BME280;64651;47.540;19.088;2023-04-24T09:03:10;99521.19;;;18.46;54.07
75972;BME280;64651;47.540;19.088;2023-04-24T09:08:13;99507.69;;;20.52;48.14
75972;BME280;64651;47.540;19.088;2023-04-24T09:13:16;99519.69;;;19.36;50.65
75972;BME280;64651;47.540;19.088;2023-04-24T09:18:19;99507.28;;;19.80;49.85
75972;BME280;64651;47.540;19.088;2023-04-24T09:23:21;99497.91;;;21.23;45.86
75972;BME280;64651;47.540;19.088;2023-04-24T09:28:32;99496.84;;;20.89;47.05
75972;BME280;64651;47.540;19.088;2023-04-24T09:33:35;99496.50;;;21.82;43.69
75972;BME280;64651;47.540;19.088;2023-04-24T09:38:38;99482.41;;;22.31;42.58
75972;BME280;64651;47.540;19.088;2023-04-24T09:43:40;99476.81;;;21.52;42.55
75972;BME280;64651;47.540;19.088;2023-04-24T09:48:42;99454.00;;;21.76;41.31
75972;BME280;64651;47.540;19.088;2023-04-24T09:53:46;99471.50;;;21.96;41.77
75972;BME280;64651;47.540;19.088;2023-04-24T09:58:49;99459.28;;;21.32;42.60
75972;BME280;64651;47.540;19.088;2023-04-24T10:03:51;99451.19;;;22.66;39.61
75972;BME280;64651;47.540;19.088;2023-04-24T10:08:53;99462.38;;;22.33;39.89
75972;BME280;64651;47.540;19.088;2023-04-24T10:13:56;99457.53;;;20.79;43.11
75972;BME280;64651;47.540;19.088;2023-04-24T10:18:59;99461.69;;;21.57;41.63
75972;BME280;64651;47.540;19.088;2023-04-24T10:24:02;99463.34;;;20.12;44.07
75972;BME280;64651;47.540;19.088;2023-04-24T10:29:06;99465.53;;;20.22;44.64
75972;BME280;64651;47.540;19.088;2023-04-24T10:34:11;99435.91;;;20.37;44.13
75972;BME280;64651;47.540;19.088;2023-04-24T10:39:14;99464.66;;;21.18;43.20
75972;BME280;64651;47.540;19.088;2023-04-24T10:44:17;99458.06;;;21.11;44.21
75972;BME280;64651;47.540;19.088;2023-04-24T10:49:28;99460.34;;;19.86;45.81
75972;BME280;64651;47.540;19.088;2023-04-24T10:54:41;99448.91;;;20.10;45.79
75972;BME280;64651;47.540;19.088;2023-04-24T10:59:46;99444.75;;;20.39;45.39
75972;BME280;64651;47.540;19.088;2023-04-24T11:04:51;99459.22;;;20.06;45.62
75972;BME280;64651;47.540;19.088;2023-04-24T11:09:59;99443.25;;;20.64;44.60
75972;BME280;64651;47.540;19.088;2023-04-24T11:15:03;99463.38;;;19.97;47.64
75972;BME280;64651;47.540;19.088;2023-04-24T11:20:07;99466.16;;;19.30;50.25
75972;BME280;64651;47.540;19.088;2023-04-24T11:25:30;99439.34;;;19.57;49.41
75972;BME280;64651;47.540;19.088;2023-04-24T11:30:33;99437.63;;;20.42;46.88
75972;BME280;64651;47.540;19.088;2023-04-24T11:35:39;99419.88;;;20.95;46.04
75972;BME280;64651;47.540;19.088;2023-04-24T11:40:42;99417.97;;;20.57;46.42
75972;BME280;64651;47.540;19.088;2023-04-24T11:45:48;99419.38;;;20.48;46.44
75972;BME280;64651;47.540;19.088;2023-04-24T11:50:51;99417.44;;;20.94;45.92
75972;BME280;64651;47.540;19.088;2023-04-24T11:55:53;99426.81;;;20.40;47.15
75972;BME280;64651;47.540;19.088;2023-04-24T12:00:56;99416.75;;;20.78;47.28
75972;BME280;64651;47.540;19.088;2023-04-24T12:06:07;99407.06;;;21.17;45.95
75972;BME280;64651;47.540;19.088;2023-04-24T12:11:10;99386.06;;;21.04;45.53
75972;BME280;64651;47.540;19.088;2023-04-24T12:16:13;99386.19;;;20.27;48.26
75972;BME280;64651;47.540;19.088;2023-04-24T12:21:26;99373.78;;;19.67;50.58
75972;BME280;64651;47.540;19.088;2023-04-24T12:26:30;99373.06;;;19.03;52.09
75972;BME280;64651;47.540;19.088;2023-04-24T12:31:33;99380.78;;;18.79;53.55
75972;BME280;64651;47.540;19.088;2023-04-24T12:36:35;99365.25;;;18.78;54.18
75972;BME280;64651;47.540;19.088;2023-04-24T12:41:37;99369.75;;;18.39;52.87
75972;BME280;64651;47.540;19.088;2023-04-24T12:46:39;99369.00;;;18.10;55.41
75972;BME280;64651;47.540;19.088;2023-04-24T12:51:42;99361.69;;;18.06;56.47
75972;BME280;64651;47.540;19.088;2023-04-24T12:56:44;99352.72;;;16.72;67.75
75972;BME280;64651;47.540;19.088;2023-04-24T13:01:46;99343.19;;;16.48;68.01
75972;BME280;64651;47.540;19.088;2023-04-24T13:06:48;99334.47;;;16.83;63.91
75972;BME280;64651;47.540;19.088;2023-04-24T13:11:51;99331.16;;;16.44;66.21
75972;BME280;64651;47.540;19.088;2023-04-24T13:16:53;99332.84;;;16.70;67.99
75972;BME280;64651;47.540;19.088;2023-04-24T13:21:56;99318.00;;;17.02;65.89
75972;BME280;64651;47.540;19.088;2023-04-24T13:26:59;99308.44;;;17.39;63.77
75972;BME280;64651;47.540;19.088;2023-04-24T13:32:03;99311.75;;;17.57;63.73
75972;BME280;64651;47.540;19.088;2023-04-24T13:37:05;99313.88;;;17.48;63.03
75972;BME280;64651;47.540;19.088;2023-04-24T13:42:09;99304.56;;;17.16;64.72
75972;BME280;64651;47.540;19.088;2023-04-24T13:47:12;99295.56;;;16.83;64.60
75972;BME280;64651;47.540;19.088;2023-04-24T13:52:15;99314.81;;;16.43;68.02
75972;BME280;64651;47.540;19.088;2023-04-24T13:57:17;99307.19;;;15.95;71.80
75972;BME280;64651;47.540;19.088;2023-04-24T14:02:19;99348.56;;;13.60;97.93
75972;BME280;64651;47.540;19.088;2023-04-24T14:07:22;99362.06;;;13.53;100.00
75972;BME280;64651;47.540;19.088;2023-04-24T14:12:25;99367.72;;;13.30;100.00
75972;BME280;64651;47.540;19.088;2023-04-24T14:17:27;99355.94;;;12.99;100.00
75972;BME280;64651;47.540;19.088;2023-04-24T14:22:30;99377.72;;;13.09;100.00
75972;BME280;64651;47.540;19.088;2023-04-24T14:27:32;99380.78;;;13.08;100.00
75972;BME280;64651;47.540;19.088;2023-04-24T14:32:39;99384.44;;;13.25;100.00
75972;BME280;64651;47.540;19.088;2023-04-24T14:37:41;99359.38;;;13.13;100.00
75972;BME280;64651;47.540;19.088;2023-04-24T14:42:44;99365.47;;;13.58;100.00
75972;BME280;64651;47.540;19.088;2023-04-24T14:47:47;99382.53;;;13.69;100.00
75972;BME280;64651;47.540;19.088;2023-04-24T14:52:49;99386.94;;;13.96;100.00
75972;BME280;64651;47.540;19.088;2023-04-24T14:57:52;99384.09;;;14.30;100.00
75972;BME280;64651;47.540;19.088;2023-04-24T15:02:55;99390.38;;;14.65;100.00
75972;BME280;64651;47.540;19.088;2023-04-24T15:07:58;99364.50;;;14.61;100.00
75972;BME280;64651;47.540;19.088;2023-04-24T15:13:00;99386.03;;;14.47;100.00
75972;BME280;64651;47.540;19.088;2023-04-24T15:18:04;99376.13;;;14.29;100.00
75972;BME280;64651;47.540;19.088;2023-04-24T15:23:08;99363.91;;;14.47;100.00
75972;BME280;64651;47.540;19.088;2023-04-24T15:28:11;99357.38;;;14.51;100.00
75972;BME280;64651;47.540;19.088;2023-04-24T15:33:14;99369.91;;;14.49;100.00
75972;BME280;64651;47.540;19.088;2023-04-24T15:38:16;99374.72;;;14.05;100.00
75972;BME280;64651;47.540;19.088;2023-04-24T15:43:18;99384.41;;;14.46;100.00
75972;BME280;64651;47.540;19.088;2023-04-24T15:48:21;99389.19;;;14.19;100.00
75972;BME280;64651;47.540;19.088;2023-04-24T15:53:23;99385.28;;;14.12;100.00
75972;BME280;64651;47.540;19.088;2023-04-24T15:58:26;99392.94;;;13.89;100.00
75972;BME280;64651;47.540;19.088;2023-04-24T16:03:31;99398.63;;;13.50;100.00
75972;BME280;64651;47.540;19.088;2023-04-24T16:08:34;99396.00;;;13.45;100.00
75972;BME280;64651;47.540;19.088;2023-04-24T16:13:37;99370.47;;;13.30;100.00
75972;BME280;64651;47.540;19.088;2023-04-24T16:18:39;99390.16;;;13.37;100.00
75972;BME280;64651;47.540;19.088;2023-04-24T16:23:41;99382.84;;;13.42;100.00
75972;BME280;64651;47.540;19.088;2023-04-24T16:28:47;99386.41;;;13.42;100.00
75972;BME280;64651;47.540;19.088;2023-04-24T16:33:50;99381.53;;;13.22;100.00
75972;BME280;64651;47.540;19.088;2023-04-24T16:38:54;99369.44;;;13.09;100.00
75972;BME280;64651;47.540;19.088;2023-04-24T16:43:57;99367.31;;;13.06;100.00
75972;BME280;64651;47.540;19.088;2023-04-24T16:48:59;99388.53;;;12.88;100.00
75972;BME280;64651;47.540;19.088;2023-04-24T16:54:01;99383.66;;;12.94;100.00
75972;BME280;64651;47.540;19.088;2023-04-24T16:59:04;99384.94;;;12.88;100.00
75972;BME280;64651;47.540;19.088;2023-04-24T17:04:06;99386.47;;;13.02;100.00
75972;BME280;64651;47.540;19.088;2023-04-24T17:09:09;99392.81;;;13.03;100.00
75972;BME280;64651;47.540;19.088;2023-04-24T17:14:13;99406.56;;;12.94;100.00
75972;BME280;64651;47.540;19.088;2023-04-24T17:19:16;99389.63;;;12.79;100.00
75972;BME280;64651;47.540;19.088;2023-04-24T17:24:18;99403.91;;;12.81;100.00
75972;BME280;64651;47.540;19.088;2023-04-24T17:29:20;99396.12;;;12.74;100.00
75972;BME280;64651;47.540;19.088;2023-04-24T17:34:23;99405.56;;;12.82;100.00
75972;BME280;64651;47.540;19.088;2023-04-24T17:39:25;99386.81;;;12.62;100.00
75972;BME280;64651;47.540;19.088;2023-04-24T17:44:30;99405.25;;;12.83;100.00
75972;BME280;64651;47.540;19.088;2023-04-24T17:49:33;99414.03;;;12.85;100.00
75972;BME280;64651;47.540;19.088;2023-04-24T17:54:35;99377.22;;;12.59;100.00
75972;BME280;64651;47.540;19.088;2023-04-24T17:59:38;99414.78;;;12.77;100.00
75972;BME280;64651;47.540;19.088;2023-04-24T18:04:40;99429.69;;;12.68;100.00
75972;BME280;64651;47.540;19.088;2023-04-24T18:09:44;99433.56;;;12.36;100.00
75972;BME280;64651;47.540;19.088;2023-04-24T18:14:47;99439.09;;;12.36;100.00
75972;BME280;64651;47.540;19.088;2023-04-24T18:19:50;99439.38;;;12.34;100.00
75972;BME280;64651;47.540;19.088;2023-04-24T18:24:52;99449.91;;;12.32;100.00
75972;BME280;64651;47.540;19.088;2023-04-24T18:29:55;99448.03;;;12.41;100.00
75972;BME280;64651;47.540;19.088;2023-04-24T18:34:58;99452.37;;;12.56;100.00
75972;BME280;64651;47.540;19.088;2023-04-24T18:40:00;99455.88;;;12.48;100.00
75972;BME280;64651;47.540;19.088;2023-04-24T18:45:03;99454.41;;;12.50;100.00
75972;BME280;64651;47.540;19.088;2023-04-24T18:50:06;99480.97;;;12.69;100.00
75972;BME280;64651;47.540;19.088;2023-04-24T18:55:08;99480.38;;;12.72;100.00
75972;BME280;64651;47.540;19.088;2023-04-24T19:00:12;99474.47;;;12.65;100.00
75972;BME280;64651;47.540;19.088;2023-04-24T19:05:15;99476.72;;;12.63;100.00
75972;BME280;64651;47.540;19.088;2023-04-24T19:10:17;99483.88;;;12.64;100.00
75972;BME280;64651;47.540;19.088;2023-04-24T19:15:19;99492.03;;;12.69;100.00
75972;BME280;64651;47.540;19.088;2023-04-24T19:20:21;99472.94;;;12.50;100.00
75972;BME280;64651;47.540;19.088;2023-04-24T19:25:23;99488.84;;;12.53;100.00
75972;BME280;64651;47.540;19.088;2023-04-24T19:30:26;99487.84;;;12.49;100.00
75972;BME280;64651;47.540;19.088;2023-04-24T19:35:28;99489.50;;;12.50;100.00
75972;BME280;64651;47.540;19.088;2023-04-24T19:40:30;99491.91;;;12.51;100.00
75972;BME280;64651;47.540;19.088;2023-04-24T19:45:33;99477.06;;;12.39;100.00
75972;BME280;64651;47.540;19.088;2023-04-24T19:50:36;99490.63;;;12.49;100.00
75972;BME280;64651;47.540;19.088;2023-04-24T19:55:38;99479.81;;;12.39;100.00
75972;BME280;64651;47.540;19.088;2023-04-24T20:00:40;99483.37;;;12.39;100.00
75972;BME280;64651;47.540;19.088;2023-04-24T20:05:43;99476.50;;;12.28;100.00
75972;BME280;64651;47.540;19.088;2023-04-24T20:10:45;99477.00;;;12.30;100.00
75972;BME280;64651;47.540;19.088;2023-04-24T20:15:47;99467.50;;;12.36;100.00
75972;BME280;64651;47.540;19.088;2023-04-24T20:20:52;99467.19;;;12.38;100.00
75972;BME280;64651;47.540;19.088;2023-04-24T20:25:57;99442.22;;;12.20;100.00
75972;BME280;64651;47.540;19.088;2023-04-24T20:30:59;99485.28;;;12.52;100.00
75972;BME280;64651;47.540;19.088;2023-04-24T20:36:02;99489.66;;;12.53;100.00
75972;BME280;64651;47.540;19.088;2023-04-24T20:41:05;99487.91;;;12.57;100.00
75972;BME280;64651;47.540;19.088;2023-04-24T20:46:10;99491.00;;;12.56;98.61
75972;BME280;64651;47.540;19.088;2023-04-24T20:51:12;99484.69;;;12.64;100.00
75972;BME280;64651;47.540;19.088;2023-04-24T20:56:15;99488.53;;;12.54;99.65
75972;BME280;64651;47.540;19.088;2023-04-24T21:01:18;99483.06;;;12.63;100.00
75972;BME280;64651;47.540;19.088;2023-04-24T21:06:20;99480.25;;;12.54;98.62
75972;BME280;64651;47.540;19.088;2023-04-24T21:11:22;99485.66;;;12.59;99.99
75972;BME280;64651;47.540;19.088;2023-04-24T21:16:25;99475.72;;;12.58;97.92
75972;BME280;64651;47.540;19.088;2023-04-24T21:21:27;99476.38;;;12.55;97.98
75972;BME280;64651;47.540;19.088;2023-04-24T21:26:30;99464.09;;;12.39;97.06
75972;BME280;64651;47.540;19.088;2023-04-24T21:31:32;99489.59;;;12.45;96.05
75972;BME280;64651;47.540;19.088;2023-04-24T21:36:34;99478.38;;;12.41;95.83
75972;BME280;64651;47.540;19.088;2023-04-24T21:41:37;99482.09;;;12.37;91.99
75972;BME280;64651;47.540;19.088;2023-04-24T21:46:39;99473.47;;;12.38;90.91
75972;BME280;64651;47.540;19.088;2023-04-24T21:51:43;99476.06;;;12.35;89.66
75972;BME280;64651;47.540;19.088;2023-04-24T21:56:45;99474.44;;;12.34;90.90
75972;BME280;64651;47.540;19.088;2023-04-24T22:01:48;99470.38;;;12.31;92.51
75972;BME280;64651;47.540;19.088;2023-04-24T22:06:50;99452.31;;;12.25;89.23
75972;BME280;64651;47.540;19.088;2023-04-24T22:11:54;99459.56;;;12.21;89.99
75972;BME280;64651;47.540;19.088;2023-04-24T22:16:56;99443.16;;;12.16;87.00
75972;BME280;64651;47.540;19.088;2023-04-24T22:21:58;99437.25;;;12.09;86.70
75972;BME280;64651;47.540;19.088;2023-04-24T22:27:01;99452.81;;;12.05;90.75
75972;BME280;64651;47.540;19.088;2023-04-24T22:32:03;99451.47;;;12.02;87.13
75972;BME280;64651;47.540;19.088;2023-04-24T22:37:06;99441.41;;;11.98;88.69
75972;BME280;64651;47.540;19.088;2023-04-24T22:42:09;99443.16;;;11.94;88.09
75972;BME280;64651;47.540;19.088;2023-04-24T22:47:11;99436.97;;;11.88;90.77
75972;BME280;64651;47.540;19.088;2023-04-24T22:52:13;99438.25;;;11.91;89.14
75972;BME280;64651;47.540;19.088;2023-04-24T22:57:16;99438.25;;;11.91;87.47
75972;BME280;64651;47.540;19.088;2023-04-24T23:02:18;99430.84;;;11.77;88.26
75972;BME280;64651;47.540;19.088;2023-04-24T23:07:20;99439.63;;;11.79;86.40
75972;BME280;64651;47.540;19.088;2023-04-24T23:12:23;99436.87;;;11.79;87.66
75972;BME280;64651;47.540;19.088;2023-04-24T23:17:25;99439.94;;;11.78;88.88
75972;BME280;64651;47.540;19.088;2023-04-24T23:22:27;99430.06;;;11.63;89.13
75972;BME280;64651;47.540;19.088;2023-04-24T23:27:30;99429.53;;;11.61;88.73
75972;BME280;64651;47.540;19.088;2023-04-24T23:32:32;99428.22;;;11.59;88.22
75972;BME280;64651;47.540;19.088;2023-04-24T23:37:34;99426.50;;;11.49;87.99
75972;BME280;64651;47.540;19.088;2023-04-24T23:42:39;99418.97;;;11.41;87.65
75972;BME280;64651;47.540;19.088;2023-04-24T23:47:41;99429.91;;;11.46;88.13
75972;BME280;64651;47.540;19.088;2023-04-24T23:52:44;99411.06;;;11.26;90.22
75972;BME280;64651;47.540;19.088;2023-04-24T23:57:46;99407.47;;;11.25;88.66
